createdAt,value
2018-09-13T08:36:20.923Z,53.80
2018-09-13T08:38:50.953Z,49.70
2018-09-13T08:46:20.927Z,45.80
2018-09-13T08:51:22.433Z,53.10
2018-09-13T08:53:52.187Z,44.20
2018-09-13T08:56:23.474Z,45.60
2018-09-13T08:58:52.947Z,48.50
2018-09-13T09:01:35.787Z,48.30
2018-09-13T09:04:08.711Z,48.60
2018-09-13T09:06:45.175Z,48.60
2018-09-13T09:09:14.699Z,48.90
2018-09-13T09:11:44.571Z,49.20
2018-09-13T09:14:14.667Z,49.50
2018-09-13T09:16:44.360Z,49.80
2018-09-13T09:19:21.705Z,50.00
2018-09-13T09:21:53.644Z,50.20
2018-09-13T09:24:25.595Z,50.20
2018-09-13T09:26:55.794Z,50.30
2018-09-13T09:29:26.716Z,50.40
2018-09-13T09:31:57.527Z,50.50
2018-09-13T09:34:27.126Z,50.70
2018-09-13T09:36:57.520Z,50.90
2018-09-13T09:39:27.491Z,51.30
2018-09-13T09:41:57.027Z,51.60
2018-09-13T09:44:28.839Z,51.70
2018-09-13T09:46:58.439Z,51.80
2018-09-13T09:49:27.992Z,51.90
2018-09-13T09:51:57.513Z,52.10
2018-09-13T09:54:27.918Z,52.30
2018-09-13T09:56:58.572Z,52.90
2018-09-13T09:59:29.459Z,53.40
2018-09-13T10:02:07.410Z,54.30
2018-09-13T10:04:39.118Z,54.90
2018-09-13T10:07:13.095Z,55.30
2018-09-13T10:09:43.423Z,55.80
2018-09-13T10:12:16.239Z,56.20
2018-09-13T10:14:51.820Z,56.70
2018-09-13T10:17:26.726Z,57.10
2018-09-13T10:20:02.869Z,57.50
2018-09-13T10:22:37.749Z,57.70
2018-09-13T10:25:12.648Z,57.70
2018-09-13T10:27:47.909Z,58.20
2018-09-13T10:30:22.785Z,59.80
2018-09-13T10:38:40.218Z,60.20
2018-09-13T10:41:15.334Z,61.90
2018-09-13T10:46:26.064Z,58.10
2018-09-13T10:49:02.294Z,57.60
2018-09-13T10:56:13.465Z,55.00
2018-09-13T10:58:44.092Z,58.50
2018-09-13T11:01:13.985Z,57.40
2018-09-13T11:03:43.511Z,57.30
2018-09-13T11:06:23.135Z,57.10
2018-09-13T11:08:52.739Z,57.00
2018-09-13T11:11:24.538Z,57.00
2018-09-13T11:14:01.677Z,57.10
2018-09-13T11:16:34.375Z,57.10
2018-09-13T11:19:24.855Z,57.00
2018-09-13T11:22:02.774Z,56.90
2018-09-13T11:24:33.150Z,57.00
2018-09-13T11:27:12.025Z,57.00
2018-09-13T11:29:56.170Z,57.00
2018-09-13T11:32:30.290Z,56.80
2018-09-13T11:35:00.758Z,56.70
2018-09-13T11:37:31.445Z,56.70
2018-09-13T11:40:01.999Z,56.70
2018-09-13T11:42:33.441Z,56.60
2018-09-13T11:45:02.989Z,56.80
2018-09-13T11:47:32.549Z,56.80
2018-09-13T11:50:02.059Z,56.70
2018-09-13T11:52:32.103Z,56.80
2018-09-13T11:55:01.778Z,56.80
2018-09-13T11:57:31.361Z,56.90
2018-09-13T12:00:10.773Z,57.10
2018-09-13T12:02:44.152Z,57.10
2018-09-13T12:05:16.092Z,57.00
2018-09-13T12:07:48.296Z,57.00
2018-09-13T12:10:27.396Z,57.00
2018-09-13T12:12:58.820Z,56.90
2018-09-13T12:15:29.092Z,56.60
2018-09-13T12:17:59.229Z,56.20
2018-09-13T12:20:29.681Z,56.00
2018-09-13T12:22:59.407Z,55.80
2018-09-13T12:25:29.812Z,55.70
2018-09-13T12:28:01.211Z,55.80
2018-09-13T12:30:31.638Z,56.00
2018-09-13T12:33:01.499Z,56.60
2018-09-13T12:35:31.147Z,57.20
2018-09-13T12:38:00.679Z,57.60
2018-09-13T12:40:30.363Z,58.00
2018-09-13T12:43:00.392Z,58.30
2018-09-13T12:45:29.971Z,58.50
2018-09-13T12:47:59.532Z,58.60
2018-09-13T12:50:30.436Z,58.60
2018-09-13T12:53:00.028Z,58.50
2018-09-13T12:55:34.624Z,58.30
2018-09-13T12:58:04.726Z,58.10
2018-09-13T13:00:43.969Z,58.10
2018-09-13T13:03:18.377Z,58.00
2018-09-13T13:06:05.844Z,58.00
2018-09-13T13:08:35.730Z,57.90
2018-09-13T13:11:09.077Z,57.90
2018-09-13T13:13:38.718Z,58.00
2018-09-13T13:16:08.260Z,57.90
2018-09-13T13:18:41.424Z,58.00
2018-09-13T13:21:11.015Z,58.00
2018-09-13T13:23:40.715Z,58.00
2018-09-13T13:26:12.348Z,58.10
2018-09-13T13:28:41.976Z,58.50
2018-09-13T13:31:11.650Z,58.50
2018-09-13T13:33:43.439Z,58.50
2018-09-13T13:36:13.582Z,58.70
2018-09-13T13:38:43.776Z,58.70
2018-09-13T13:41:13.341Z,58.70
2018-09-13T13:43:42.901Z,58.90
2018-09-13T13:46:12.784Z,58.80
2018-09-13T13:48:42.364Z,58.80
2018-09-13T13:51:11.912Z,58.80
2018-09-13T13:53:42.091Z,58.70
2018-09-13T13:56:11.612Z,58.60
2018-09-13T13:58:41.484Z,59.10
2018-09-13T14:01:11.027Z,58.80
2018-09-13T14:03:40.563Z,58.70
2018-09-13T14:06:10.090Z,58.70
2018-09-13T14:08:40.215Z,58.70
2018-09-13T14:11:09.740Z,59.50
2018-09-13T14:13:39.387Z,59.40
2018-09-13T14:16:09.010Z,59.30
2018-09-13T14:18:38.876Z,59.30
2018-09-13T14:21:08.456Z,59.40
2018-09-13T14:23:37.951Z,60.80
2018-09-13T14:26:08.314Z,60.70
2018-09-13T14:28:37.872Z,60.80
2018-09-13T14:31:07.504Z,60.80
2018-09-13T14:33:37.092Z,60.60
2018-09-13T14:36:06.736Z,60.30
2018-09-13T14:38:36.882Z,60.30
2018-09-13T14:41:07.182Z,60.30
2018-09-13T14:43:37.121Z,60.40
2018-09-13T14:46:07.281Z,60.30
2018-09-13T14:48:36.918Z,60.30
2018-09-13T14:51:07.088Z,60.30
2018-09-13T14:53:36.623Z,60.40
2018-09-13T14:56:06.533Z,60.30
2018-09-13T14:58:37.271Z,60.40
2018-09-13T15:01:07.516Z,60.50
2018-09-13T15:03:37.335Z,60.70
2018-09-13T15:06:07.918Z,60.60
2018-09-13T15:08:38.036Z,60.50
2018-09-13T15:11:08.301Z,60.70
2018-09-13T15:13:38.472Z,61.00
2018-09-13T15:16:08.459Z,61.10
2018-09-13T15:18:38.668Z,61.60
2018-09-13T15:21:09.314Z,61.70
2018-09-13T15:23:38.925Z,61.90
2018-09-13T15:26:09.191Z,62.10
2018-09-13T15:28:41.439Z,62.50
2018-09-13T15:31:11.580Z,62.70
2018-09-13T15:33:41.792Z,63.00
2018-09-13T15:36:12.522Z,63.10
2018-09-13T15:38:43.252Z,63.20
2018-09-13T15:41:13.184Z,63.40
2018-09-13T15:43:43.961Z,63.50
2018-09-13T15:46:14.236Z,63.60
2018-09-13T15:48:45.323Z,63.60
2018-09-13T15:51:16.430Z,63.60
2018-09-13T15:53:46.619Z,65.10
2018-09-13T15:56:16.299Z,64.70
2018-09-13T15:58:46.911Z,64.60
2018-09-13T18:57:36.808Z,60.40
2018-09-13T19:00:06.699Z,61.10
2018-09-13T19:02:37.808Z,56.50
2018-09-13T19:05:08.387Z,58.90
2018-09-13T19:07:38.163Z,59.70
2018-09-13T19:10:08.147Z,59.00
2018-09-13T19:12:38.744Z,59.20
2018-09-13T19:15:11.824Z,59.50
2018-09-13T19:17:42.164Z,59.80
2018-09-13T19:20:12.744Z,60.10
2018-09-13T19:22:42.694Z,60.50
2018-09-13T19:25:12.619Z,61.00
2018-09-13T19:27:42.546Z,61.20
2018-09-13T19:30:13.123Z,61.60
2018-09-13T19:32:43.344Z,61.90
2018-09-13T19:35:15.338Z,62.10
2018-09-13T19:37:49.205Z,62.30
2018-09-13T19:40:24.137Z,62.50
2018-09-13T19:42:57.585Z,62.60
2018-09-13T19:45:28.790Z,63.80
2018-09-13T19:48:03.422Z,63.60
2018-09-13T19:50:38.268Z,63.40
2018-09-13T19:53:08.427Z,63.50
2018-09-13T19:55:43.204Z,63.50
2018-09-13T19:58:21.297Z,63.50
2018-09-13T20:00:52.760Z,63.50
2018-09-13T20:03:24.721Z,63.50
2018-09-13T20:06:01.392Z,63.50
2018-09-13T20:08:33.189Z,63.60
2018-09-13T20:11:11.716Z,63.70
2018-09-13T20:13:47.404Z,63.70
2018-09-13T20:16:27.717Z,63.70
2018-09-13T20:18:58.310Z,63.70
2018-09-13T20:21:29.032Z,63.80
2018-09-13T20:23:59.631Z,63.90
2018-09-13T20:26:30.048Z,63.90
2018-09-13T20:29:01.370Z,63.90
2018-09-13T20:31:47.530Z,63.90
2018-09-13T20:34:22.668Z,64.00
2018-09-13T20:36:57.423Z,64.00
2018-09-13T20:39:28.156Z,64.10
2018-09-13T20:41:58.232Z,64.10
2018-09-13T20:44:36.383Z,64.20
2018-09-13T20:47:09.960Z,64.20
2018-09-13T20:49:40.111Z,64.20
2018-09-13T20:52:11.169Z,64.20
2018-09-13T20:54:40.959Z,64.20
2018-09-13T20:57:12.207Z,64.30
2018-09-13T20:59:42.567Z,64.40
2018-09-13T21:02:12.520Z,64.40
2018-09-13T21:04:42.674Z,64.50
2018-09-13T21:07:12.524Z,64.60
2018-09-13T21:09:43.811Z,65.50
2018-09-13T21:12:13.956Z,64.60
2018-09-13T21:14:48.518Z,64.70
2018-09-13T21:17:19.187Z,64.80
2018-09-13T21:19:50.439Z,64.40
2018-09-13T21:22:21.924Z,65.00
2018-09-13T21:24:52.471Z,65.10
2018-09-13T21:27:31.535Z,65.10
2018-09-13T21:30:01.221Z,65.30
2018-09-13T21:32:32.387Z,65.30
2018-09-13T21:35:05.002Z,66.80
2018-09-13T21:37:35.315Z,66.50
2018-09-13T21:40:10.771Z,66.30
2018-09-13T21:42:45.922Z,66.20
2018-09-13T21:45:16.006Z,66.30
2018-09-13T21:47:46.275Z,66.40
2018-09-13T21:50:16.734Z,66.40
2018-09-13T21:52:46.728Z,66.40
2018-09-13T21:55:24.976Z,66.50
2018-09-13T21:57:59.824Z,66.60
2018-09-13T22:00:31.836Z,66.70
2018-09-13T22:03:02.395Z,66.70
2018-09-13T22:05:32.215Z,66.80
2018-09-13T22:08:02.120Z,66.90
2018-09-13T22:10:31.793Z,67.00
2018-09-13T22:13:01.679Z,68.10
2018-09-13T22:15:32.347Z,67.90
2018-09-13T22:18:03.111Z,67.80
2018-09-13T22:20:32.993Z,67.70
2018-09-13T22:23:02.899Z,67.60
2018-09-13T22:25:32.822Z,67.60
2018-09-13T22:28:03.499Z,67.70
2018-09-13T22:30:33.576Z,67.70
2018-09-13T22:33:03.636Z,67.80
2018-09-13T22:35:33.367Z,67.80
2018-09-13T22:38:03.014Z,68.00
2018-09-13T22:40:33.270Z,68.00
2018-09-13T22:43:03.804Z,68.10
2018-09-13T22:45:33.447Z,68.20
2018-09-13T22:48:03.763Z,68.30
2018-09-13T22:50:33.960Z,68.40
2018-09-13T22:53:04.642Z,68.50
2018-09-13T22:55:35.180Z,68.60
2018-09-13T22:58:05.099Z,68.60
2018-09-13T23:00:35.013Z,68.70
2018-09-13T23:03:05.684Z,68.80
2018-09-13T23:05:36.413Z,68.80
2018-09-13T23:08:07.053Z,68.90
2018-09-13T23:10:38.012Z,69.10
2018-09-13T23:13:07.623Z,69.10
2018-09-13T23:15:37.262Z,69.20
2018-09-13T23:18:06.842Z,69.40
2018-09-13T23:20:36.424Z,69.40
2018-09-13T23:23:06.095Z,69.40
2018-09-13T23:25:36.119Z,69.50
2018-09-13T23:28:06.405Z,69.30
2018-09-13T23:30:36.374Z,69.60
2018-09-13T23:33:06.633Z,69.60
2018-09-13T23:35:36.973Z,69.60
2018-09-13T23:38:06.819Z,69.70
2018-09-13T23:40:37.176Z,69.70
2018-09-13T23:43:07.904Z,70.00
2018-09-13T23:45:38.571Z,69.90
2018-09-13T23:48:08.447Z,69.60
2018-09-13T23:50:39.287Z,69.90
2018-09-13T23:53:10.015Z,69.90
2018-09-13T23:55:39.914Z,69.80
2018-09-13T23:58:09.455Z,69.70
